Heidrick, KY (40949)

5:58 PM EDT on October 20, 2014 (GMT -0400)
liford's | Change Station
CLOSE
Current Station
Personal Weather Station
Location: Barbourville, KY
Elevation: 1066 ft
Nearby Weather Stations

Elev 1066 ft 36.84 °N, 83.85 °W | Updated 11 minutes ago

Overcast
Overcast
67.6 °F
Feels Like 67.6 °F
N
0.0
Wind Variable Wind from NW

Today
High -- | Low -- °F
--% Chance of Precip.
Yesterday
High -- | Low -- °F
Precip. -- in
7:47 AM 6:52 PM
Waning Crescent, 9% visible
Pressure 29.96 in
Visibility 10.0 miles
Clouds Overcast 9000 ft
Dew Point 51 °F
Humidity 56%
Rainfall 0.00 in
Snow Depth Not available.
UV 1 out of 12
Pollen 2.10 out of 12
Air Quality Not available.
Flu Activity Sporadic
METAR KLOZ 202053Z AUTO 25008KT 10SM OVC090 17/08 A2997 RMK AO2 SLP146 60001 T01720083 56014

More Conditions Fewer Conditions

Pressure 29.96 in
Visibility 10.0 miles
Clouds Overcast 9000 ft
Dew Point 51 °F
Humidity 56%
Rainfall 0.00 in
Snow Depth Not available.
UV 1 out of 12
Pollen 2.10 out of 12
Air Quality Not available.
Flu Activity Sporadic
METAR KLOZ 202053Z AUTO 25008KT 10SM OVC090 17/08 A2997 RMK AO2 SLP146 60001 T01720083 56014

More Conditions Fewer Conditions

10-Day Weather Forecast

Almanac

Astronomy

Oct. 20, 2014 Rise Set
Actual Time 7:47 AM EDT 6:52 PM EDT
Civil Twilight 7:21 AM EDT 7:18 PM EDT
Nautical Twilight 6:51 AM EDT 7:48 PM EDT
Astronomical Twilight 6:21 AM EDT 8:18 PM EDT
Moon 4:39 AM EDT 5:10 PM EDT
Length of Visible Light 11h 57m
Length of Day
11h 04m
Waning Crescent, 9% of the Moon is Illuminated
Today
Waning Crescent
Oct 23
New
Oct 30
First Quarter
Nov 6
Full
Nov 14
Last Quarter

Today's Extremes

State Highs State Lows

Community

WunderPhotos

Upload Photos

1,763,527 photos uploaded!

WunderBlogs® & News

Nearby

Snow Depth

Station Depth Elevation
No new snow has been reported.

Earthquake Activity

City Distance Mag. Time & Date
No recent earthquake activity has been reported nearby.
Minimum magnitude displayed is 2.5.

Coastal Water Temperatures

Place Temperature
No Stations Reporting

Nearby Weather Stations